ROYN/OGN METAR and TAF weather

Enter ICAO airport designator
Station Type Date Time Source
ROYN METAR 2019/02/21 11:00 UTC NOAA

ROYN 211100Z AUTO 32003KT 260V350 9999 SCT011 BKN046 BKN050 //////TCU 22/22 Q1016


Station Type Date Time Source
ROYN Decoded METAR 2019/02/21 11:00 UTC NOAA

Yonaguni Airport, Japan (ROYN) 24-28N 122-59E 19M
Feb 21, 2019 - 06:00 AM EST / 2019.02.21 1100 UTC
Wind: from the NW (320 degrees) at 3 MPH (3 KT) (direction variable):0
Visibility: greater than 7 mile(s):0
Sky conditions: mostly cloudy
Weather: Towering cumulus clouds observed
Temperature: 71 F (22 C)
Dew Point: 71 F (22 C)
Relative Humidity: 100%
Pressure (altimeter): 30.00 in. Hg (1016 hPa)
ob: ROYN 211100Z AUTO 32003KT 260V350 9999 SCT011 BKN046 BKN050 //////TCU 22/22 Q1016
cycle: 11

Station Type Date Time Source
ROYN TAF UTC NOAA

Error!


Example: see airport list